createdAt,value
2023-05-10T00:00:19.911Z,100870.69
2023-05-10T00:00:51.805Z,100869.91
2023-05-10T00:01:23.442Z,100873.44
2023-05-10T00:01:55.561Z,100870.69
2023-05-10T00:02:27.778Z,100869.91
2023-05-10T00:02:59.325Z,100878.13
2023-05-10T00:03:30.845Z,100870.69
2023-05-10T00:04:02.327Z,100869.91
2023-05-10T00:04:33.797Z,100865.63
2023-05-10T00:05:06.129Z,100867.56
2023-05-10T00:05:37.560Z,100866.41
2023-05-10T00:06:09.052Z,100864.81
2023-05-10T00:06:40.460Z,100865.63
2023-05-10T00:07:11.844Z,100867.56
2023-05-10T00:07:45.751Z,100865.63
2023-05-10T00:08:17.309Z,100867.56
2023-05-10T00:08:48.710Z,100864.81
2023-05-10T00:09:20.232Z,100867.56
2023-05-10T00:09:51.707Z,100872.25
2023-05-10T00:10:23.382Z,100866.78
2023-05-10T00:10:54.811Z,100864.81
2023-05-10T00:11:26.337Z,100866.00
2023-05-10T00:11:59.550Z,100863.25
2023-05-10T00:12:30.969Z,100867.56
2023-05-10T00:13:02.578Z,100859.34
2023-05-10T00:13:34.209Z,100862.09
2023-05-10T00:14:05.843Z,100862.09
2023-05-10T00:14:37.234Z,100866.41
2023-05-10T00:15:09.862Z,100858.19
2023-05-10T00:15:41.322Z,100857.41
2023-05-10T00:16:14.022Z,100863.66
2023-05-10T00:16:46.265Z,100866.41
2023-05-10T00:17:17.787Z,100860.13
2023-05-10T00:17:49.318Z,100862.88
2023-05-10T00:18:20.878Z,100857.41
2023-05-10T00:18:52.358Z,100857.41
2023-05-10T00:19:23.806Z,100860.91
2023-05-10T00:19:55.453Z,100863.66
2023-05-10T00:20:26.879Z,100860.91
2023-05-10T00:20:58.308Z,100860.91
2023-05-10T00:21:29.798Z,100862.88
2023-05-10T00:22:01.370Z,100855.44
2023-05-10T00:22:33.151Z,100868.34
2023-05-10T00:23:04.801Z,100855.84
2023-05-10T00:23:36.390Z,100857.41
2023-05-10T00:24:07.851Z,100853.09
2023-05-10T00:24:39.239Z,100866.41
2023-05-10T00:25:11.466Z,100865.63
2023-05-10T00:25:43.161Z,100860.13
2023-05-10T00:26:14.556Z,100862.88
2023-05-10T00:26:46.012Z,100859.34
2023-05-10T00:27:17.378Z,100856.63
2023-05-10T00:27:48.868Z,100860.13
2023-05-10T00:28:20.327Z,100857.41
2023-05-10T00:28:51.791Z,100860.13
2023-05-10T00:29:23.258Z,100854.66
2023-05-10T00:29:54.644Z,100849.97
2023-05-10T00:30:26.022Z,100864.44
2023-05-10T00:30:57.461Z,100855.44
2023-05-10T00:31:28.925Z,100860.13
2023-05-10T00:32:00.391Z,100855.44
2023-05-10T00:32:31.954Z,100852.72
2023-05-10T00:33:04.110Z,100850.75
2023-05-10T00:33:35.541Z,100853.50
2023-05-10T00:34:06.869Z,100856.63
2023-05-10T00:34:38.218Z,100851.94
2023-05-10T00:35:09.674Z,100856.22
2023-05-10T00:35:41.299Z,100852.72
2023-05-10T00:36:12.844Z,100854.66
2023-05-10T00:36:44.469Z,100853.50
2023-05-10T00:37:16.213Z,100856.22
2023-05-10T00:37:47.688Z,100847.22
2023-05-10T00:38:19.417Z,100857.00
2023-05-10T00:38:50.942Z,100859.75
2023-05-10T00:39:22.500Z,100857.41
2023-05-10T00:39:54.519Z,100857.41
2023-05-10T00:40:26.175Z,100860.13
2023-05-10T00:40:57.594Z,100856.63
2023-05-10T00:41:29.022Z,100853.50
2023-05-10T00:42:01.229Z,100859.34
2023-05-10T00:42:32.734Z,100854.66
2023-05-10T00:43:04.291Z,100851.94
2023-05-10T00:43:35.630Z,100860.91
2023-05-10T00:44:07.293Z,100856.63
2023-05-10T00:44:38.874Z,100852.72
2023-05-10T00:45:10.614Z,100862.09
2023-05-10T00:45:42.504Z,100860.13
2023-05-10T00:46:16.477Z,100862.09
2023-05-10T00:46:49.402Z,100856.63
2023-05-10T00:47:20.948Z,100860.53
2023-05-10T00:47:56.078Z,100861.31
2023-05-10T00:48:27.774Z,100854.28
2023-05-10T00:48:59.348Z,100855.84
2023-05-10T00:49:31.221Z,100857.00
2023-05-10T00:50:03.157Z,100861.31
2023-05-10T00:50:34.850Z,100851.53
2023-05-10T00:51:07.064Z,100860.53
2023-05-10T00:51:38.610Z,100855.06
2023-05-10T00:52:10.787Z,100855.06
2023-05-10T00:52:43.685Z,100855.84
2023-05-10T00:53:16.305Z,100852.31
2023-05-10T00:53:47.927Z,100857.00
2023-05-10T00:54:19.596Z,100855.06
2023-05-10T00:54:53.124Z,100854.28
2023-05-10T00:55:24.936Z,100854.28
2023-05-10T00:55:56.481Z,100857.78
2023-05-10T00:56:29.349Z,100851.16
2023-05-10T00:57:00.764Z,100859.34
2023-05-10T00:57:32.772Z,100854.66
2023-05-10T00:58:06.338Z,100857.41
2023-05-10T00:58:37.906Z,100856.22
2023-05-10T00:59:10.617Z,100849.97
2023-05-10T00:59:42.110Z,100858.19
2023-05-10T01:00:18.823Z,100867.56
2023-05-10T01:00:51.494Z,100860.91
2023-05-10T01:01:23.191Z,100855.44
2023-05-10T01:01:54.888Z,100864.81
2023-05-10T01:02:26.628Z,100862.09
2023-05-10T01:02:59.010Z,100856.63
2023-05-10T01:03:30.776Z,100860.91
2023-05-10T01:04:04.152Z,100861.31
2023-05-10T01:04:36.463Z,100857.78
2023-05-10T01:05:08.069Z,100863.25
2023-05-10T01:05:39.508Z,100854.66
2023-05-10T01:06:11.225Z,100854.66
2023-05-10T01:06:43.043Z,100857.78
2023-05-10T01:07:14.404Z,100855.84
2023-05-10T01:07:45.755Z,100857.00
2023-05-10T01:08:17.590Z,100865.22
2023-05-10T01:08:48.987Z,100862.47
2023-05-10T01:09:21.185Z,100864.44
2023-05-10T01:09:52.767Z,100863.25
2023-05-10T01:10:24.597Z,100863.69
2023-05-10T01:10:56.317Z,100863.25
2023-05-10T01:11:27.999Z,100862.47
2023-05-10T01:12:02.473Z,100858.22
2023-05-10T01:12:40.896Z,100873.44
2023-05-10T01:13:13.620Z,100858.97
2023-05-10T01:13:57.669Z,100862.47
2023-05-10T01:14:29.837Z,100855.06
2023-05-10T01:15:02.573Z,100859.75
2023-05-10T01:15:34.733Z,100860.53
2023-05-10T01:16:07.936Z,100860.53
2023-05-10T01:16:41.810Z,100860.53
2023-05-10T01:17:13.554Z,100859.75
2023-05-10T01:17:47.516Z,100862.47
2023-05-10T01:18:22.068Z,100855.06
2023-05-10T01:18:53.892Z,100862.09
2023-05-10T01:19:27.575Z,100866.00
2023-05-10T01:19:59.086Z,100865.22
2023-05-10T01:20:37.519Z,100865.22
2023-05-10T01:21:20.580Z,100865.22
2023-05-10T01:22:16.638Z,100865.22
2023-05-10T01:23:31.975Z,100864.84
2023-05-10T01:24:15.969Z,100861.34
2023-05-10T01:25:20.867Z,100865.25
2023-05-10T01:26:01.540Z,100867.19
2023-05-10T01:26:47.766Z,100865.25
2023-05-10T01:27:30.975Z,100865.25
2023-05-10T01:28:02.314Z,100864.47
2023-05-10T01:28:50.980Z,100863.69
2023-05-10T01:30:13.990Z,100858.22
2023-05-10T01:31:24.621Z,100862.13
2023-05-10T01:32:26.750Z,100856.63
2023-05-10T01:33:22.969Z,100860.53
2023-05-10T01:34:03.727Z,100859.75
2023-05-10T01:34:55.681Z,100859.75
2023-05-10T01:35:35.506Z,100861.72
2023-05-10T01:36:17.113Z,100853.50
2023-05-10T01:37:03.868Z,100858.19
2023-05-10T01:37:43.770Z,100855.47
2023-05-10T01:38:47.474Z,100853.50
2023-05-10T01:39:27.640Z,100859.75
2023-05-10T01:40:17.195Z,100857.41
2023-05-10T01:41:02.495Z,100854.69
2023-05-10T01:41:56.535Z,100864.84
2023-05-10T01:42:34.744Z,100861.31
2023-05-10T01:43:12.115Z,100860.53
2023-05-10T01:44:19.816Z,100866.78
2023-05-10T01:44:59.332Z,100861.31
2023-05-10T01:45:51.799Z,100859.75
2023-05-10T01:46:34.345Z,100865.22
2023-05-10T01:47:11.684Z,100865.22
2023-05-10T01:47:45.685Z,100864.44
2023-05-10T01:48:20.407Z,100874.22
2023-05-10T01:48:56.809Z,100864.44
2023-05-10T01:49:32.924Z,100869.13
2023-05-10T01:50:07.767Z,100869.13
2023-05-10T01:50:44.590Z,100867.19
2023-05-10T01:51:24.764Z,100869.13
2023-05-10T01:52:04.423Z,100864.84
2023-05-10T01:52:41.803Z,100864.84
2023-05-10T01:53:16.483Z,100864.06
2023-05-10T01:53:49.911Z,100867.19
2023-05-10T01:54:23.663Z,100857.41
2023-05-10T01:55:00.981Z,100863.66
2023-05-10T01:55:35.914Z,100861.34
2023-05-10T01:56:09.219Z,100865.59
2023-05-10T01:56:42.958Z,100862.88
2023-05-10T01:57:15.345Z,100859.75
2023-05-10T01:57:51.832Z,100859.75
2023-05-10T01:58:31.531Z,100858.97
2023-05-10T01:59:08.893Z,100855.06
2023-05-10T01:59:44.043Z,100853.88
2023-05-10T02:00:17.224Z,100860.94
2023-05-10T02:00:51.490Z,100862.88
2023-05-10T02:01:24.005Z,100870.31
2023-05-10T02:01:59.809Z,100862.88
2023-05-10T02:02:37.669Z,100865.63
2023-05-10T02:03:11.325Z,100859.75
2023-05-10T02:03:44.502Z,100858.19
2023-05-10T02:04:18.410Z,100864.44
2023-05-10T02:04:51.613Z,100865.22
2023-05-10T02:05:23.859Z,100861.72
2023-05-10T02:05:57.191Z,100865.22
2023-05-10T02:06:29.213Z,100863.66
2023-05-10T02:07:00.879Z,100860.94
2023-05-10T02:07:34.121Z,100858.97
2023-05-10T02:08:08.184Z,100860.94
2023-05-10T02:08:41.263Z,100865.63
2023-05-10T02:09:13.964Z,100861.72
2023-05-10T02:09:50.432Z,100859.75
2023-05-10T02:10:21.874Z,100867.19
2023-05-10T02:10:55.785Z,100862.50
2023-05-10T02:11:29.125Z,100867.19
2023-05-10T02:12:04.287Z,100862.50
2023-05-10T02:12:48.316Z,100871.47
2023-05-10T02:13:20.663Z,100865.22
2023-05-10T02:13:54.565Z,100874.59
2023-05-10T02:14:27.917Z,100877.34
2023-05-10T02:15:03.768Z,100870.31
2023-05-10T02:15:36.146Z,100871.88
2023-05-10T02:16:08.336Z,100865.63
2023-05-10T02:16:41.510Z,100869.13
2023-05-10T02:17:14.404Z,100869.13
2023-05-10T02:17:47.528Z,100867.19
2023-05-10T02:18:19.612Z,100872.66
2023-05-10T02:18:53.104Z,100871.47
2023-05-10T02:19:25.216Z,100865.22
2023-05-10T02:19:57.905Z,100866.00
2023-05-10T02:20:32.051Z,100870.69
2023-05-10T02:21:04.284Z,100867.97
2023-05-10T02:21:37.215Z,100864.44
2023-05-10T02:22:10.342Z,100870.69
2023-05-10T02:22:43.781Z,100870.31
2023-05-10T02:23:17.850Z,100870.69
2023-05-10T02:23:51.076Z,100869.91
2023-05-10T02:24:25.269Z,100872.66
2023-05-10T02:25:00.358Z,100869.91
2023-05-10T02:25:33.553Z,100874.59
2023-05-10T02:26:07.261Z,100873.44
2023-05-10T02:26:39.524Z,100876.19
2023-05-10T02:27:12.319Z,100876.19
2023-05-10T02:27:45.619Z,100876.19
2023-05-10T02:28:18.089Z,100873.44
2023-05-10T02:28:51.164Z,100878.91
2023-05-10T02:29:26.075Z,100878.91
2023-05-10T02:29:58.934Z,100877.34
2023-05-10T02:30:33.385Z,100875.38
2023-05-10T02:31:06.971Z,100877.34
2023-05-10T02:31:39.800Z,100880.88
2023-05-10T02:32:12.978Z,100873.81
2023-05-10T02:32:45.527Z,100884.00
2023-05-10T02:33:18.545Z,100881.25
2023-05-10T02:33:50.651Z,100887.13
2023-05-10T02:34:26.030Z,100880.06
2023-05-10T02:34:58.353Z,100877.34
2023-05-10T02:35:29.837Z,100879.28
2023-05-10T02:36:03.573Z,100881.25
2023-05-10T02:36:36.348Z,100883.22
2023-05-10T02:37:08.030Z,100885.97
2023-05-10T02:37:40.727Z,100883.97
2023-05-10T02:38:13.487Z,100883.22
2023-05-10T02:38:46.490Z,100884.75
2023-05-10T02:39:20.394Z,100883.97
2023-05-10T02:39:54.805Z,100880.50
2023-05-10T02:40:28.838Z,100880.50
2023-05-10T02:41:00.522Z,100884.41
2023-05-10T02:41:33.712Z,100883.22
2023-05-10T02:42:06.523Z,100880.09
2023-05-10T02:42:39.714Z,100889.88
2023-05-10T02:43:15.332Z,100886.75
2023-05-10T02:43:48.050Z,100882.06
2023-05-10T02:44:21.376Z,100889.47
2023-05-10T02:44:55.539Z,100882.06
2023-05-10T02:45:31.319Z,100895.72
2023-05-10T02:46:03.287Z,100894.56
2023-05-10T02:46:35.020Z,100889.88
2023-05-10T02:47:06.460Z,100891.44
2023-05-10T02:47:38.065Z,100887.91
2023-05-10T02:48:09.574Z,100894.56
2023-05-10T02:48:41.024Z,100894.16
2023-05-10T02:49:12.614Z,100897.28
2023-05-10T02:49:44.146Z,100895.34
2023-05-10T02:50:16.033Z,100891.03
2023-05-10T02:50:52.265Z,100887.91
2023-05-10T02:51:29.164Z,100897.28
2023-05-10T02:52:05.754Z,100889.88
2023-05-10T02:52:48.115Z,100892.59
2023-05-10T02:53:23.894Z,100891.03
2023-05-10T02:53:57.557Z,100891.44
2023-05-10T02:54:32.820Z,100885.97
2023-05-10T02:55:06.805Z,100890.66
2023-05-10T02:55:43.101Z,100890.25
2023-05-10T02:56:25.916Z,100888.31
2023-05-10T02:57:04.872Z,100893.38
2023-05-10T02:57:42.282Z,100894.16
2023-05-10T02:58:13.694Z,100891.44
2023-05-10T02:58:45.033Z,100888.28
2023-05-10T02:59:16.475Z,100888.28
2023-05-10T02:59:47.905Z,100893.38
2023-05-10T03:00:19.516Z,100893.38
2023-05-10T03:00:51.367Z,100892.19
2023-05-10T03:01:22.888Z,100892.19
2023-05-10T03:01:54.714Z,100893.75
2023-05-10T03:02:26.215Z,100894.94
2023-05-10T03:02:58.541Z,100894.94
2023-05-10T03:03:30.010Z,100887.91
2023-05-10T03:04:01.847Z,100889.84
2023-05-10T03:04:33.254Z,100890.63
2023-05-10T03:05:04.981Z,100894.16
2023-05-10T03:05:36.360Z,100891.81
2023-05-10T03:06:07.752Z,100896.50
2023-05-10T03:06:39.166Z,100898.06
2023-05-10T03:07:10.924Z,100896.50
2023-05-10T03:07:42.354Z,100896.09
2023-05-10T03:08:13.874Z,100896.50
2023-05-10T03:08:46.345Z,100894.94
2023-05-10T03:09:17.794Z,100894.94
2023-05-10T03:09:50.309Z,100896.09
2023-05-10T03:10:28.419Z,100895.72
2023-05-10T03:11:06.358Z,100904.31
2023-05-10T03:12:04.846Z,100897.25
2023-05-10T03:12:57.581Z,100904.28
2023-05-10T03:13:29.070Z,100903.50
2023-05-10T03:14:32.079Z,100900.00
2023-05-10T03:15:20.546Z,100893.75
2023-05-10T03:16:13.120Z,100907.41
2023-05-10T03:16:53.369Z,100897.66
2023-05-10T03:17:31.888Z,100906.63
2023-05-10T03:18:09.032Z,100904.28
2023-05-10T03:18:45.541Z,100900.00
2023-05-10T03:19:35.693Z,100909.75
2023-05-10T03:20:12.687Z,100904.28
2023-05-10T03:20:49.261Z,100905.84
2023-05-10T03:21:24.047Z,100905.47
2023-05-10T03:22:00.833Z,100902.75
2023-05-10T03:22:37.119Z,100900.00
2023-05-10T03:23:23.531Z,100908.22
2023-05-10T03:24:01.357Z,100908.59
2023-05-10T03:24:35.240Z,100903.13
2023-05-10T03:25:09.250Z,100905.09
2023-05-10T03:25:41.953Z,100908.59
2023-05-10T03:26:21.443Z,100907.44
2023-05-10T03:26:56.633Z,100912.91
2023-05-10T03:27:28.934Z,100913.69
2023-05-10T03:28:02.668Z,100912.50
2023-05-10T03:28:35.858Z,100908.22
2023-05-10T03:29:09.004Z,100912.13
2023-05-10T03:29:40.626Z,100912.13
2023-05-10T03:30:13.771Z,100909.78
2023-05-10T03:30:46.316Z,100909.00
2023-05-10T03:31:18.691Z,100914.47
2023-05-10T03:31:50.896Z,100914.06
2023-05-10T03:32:23.378Z,100914.06
2023-05-10T03:32:55.162Z,100917.56
2023-05-10T03:33:26.753Z,100918.75
2023-05-10T03:33:58.137Z,100921.09
2023-05-10T03:34:31.402Z,100918.38
2023-05-10T03:35:10.813Z,100919.53
2023-05-10T03:35:42.408Z,100917.97
2023-05-10T03:36:13.721Z,100915.22
2023-05-10T03:36:45.171Z,100916.00
2023-05-10T03:37:16.559Z,100915.22
2023-05-10T03:37:48.402Z,100915.22
2023-05-10T03:38:19.743Z,100911.31
2023-05-10T03:38:51.232Z,100916.78
2023-05-10T03:39:22.728Z,100912.09
2023-05-10T03:39:54.195Z,100912.91
2023-05-10T03:40:27.013Z,100914.84
2023-05-10T03:40:58.358Z,100912.91
2023-05-10T03:41:30.277Z,100916.78
2023-05-10T03:42:01.860Z,100912.09
2023-05-10T03:42:33.255Z,100916.78
2023-05-10T03:43:05.019Z,100910.16
2023-05-10T03:43:36.500Z,100911.31
2023-05-10T03:44:07.868Z,100902.75
2023-05-10T03:44:40.771Z,100907.41
2023-05-10T03:45:12.170Z,100906.25
2023-05-10T03:45:43.517Z,100904.31
2023-05-10T03:46:14.913Z,100901.56
2023-05-10T03:46:46.458Z,100903.91
2023-05-10T03:47:17.904Z,100906.66
2023-05-10T03:47:49.302Z,100905.09
2023-05-10T03:48:20.692Z,100907.81
2023-05-10T03:48:52.063Z,100909.38
2023-05-10T03:49:24.070Z,100902.34
2023-05-10T03:49:55.418Z,100901.97
2023-05-10T03:50:27.263Z,100901.97
2023-05-10T03:50:58.620Z,100907.44
2023-05-10T03:51:31.980Z,100908.22
2023-05-10T03:52:03.451Z,100908.22
2023-05-10T03:52:34.856Z,100913.69
2023-05-10T03:53:06.393Z,100912.13
2023-05-10T03:53:37.796Z,100913.28
2023-05-10T03:54:09.165Z,100909.78
2023-05-10T03:54:40.624Z,100915.25
2023-05-10T03:55:12.017Z,100914.47
2023-05-10T03:55:43.402Z,100916.81
2023-05-10T03:56:14.829Z,100914.47
2023-05-10T03:56:47.430Z,100913.28
2023-05-10T03:57:18.794Z,100914.06
2023-05-10T03:57:54.658Z,100915.63
2023-05-10T03:58:26.210Z,100913.69
2023-05-10T03:58:57.628Z,100908.22
2023-05-10T03:59:29.042Z,100920.69
2023-05-10T04:00:00.730Z,100912.50
2023-05-10T04:00:33.443Z,100914.06
2023-05-10T04:01:04.885Z,100913.28
2023-05-10T04:01:36.336Z,100909.75
2023-05-10T04:02:07.982Z,100913.69
2023-05-10T04:02:39.519Z,100917.19
2023-05-10T04:03:11.511Z,100917.97
2023-05-10T04:03:43.067Z,100919.16
2023-05-10T04:04:14.486Z,100913.69
2023-05-10T04:04:46.066Z,100910.94
2023-05-10T04:05:17.449Z,100913.28
2023-05-10T04:05:48.870Z,100912.91
2023-05-10T04:06:20.472Z,100916.78
2023-05-10T04:06:51.968Z,100905.84
2023-05-10T04:07:23.427Z,100914.44
2023-05-10T04:07:54.882Z,100913.66
2023-05-10T04:08:26.716Z,100919.91
2023-05-10T04:09:00.743Z,100914.44
2023-05-10T04:09:32.350Z,100920.69
2023-05-10T04:10:04.056Z,100915.22
2023-05-10T04:10:35.702Z,100917.97
2023-05-10T04:11:12.000Z,100915.22
2023-05-10T04:11:43.648Z,100914.44
2023-05-10T04:12:15.029Z,100918.34
2023-05-10T04:12:46.633Z,100916.41
2023-05-10T04:13:18.085Z,100920.31
2023-05-10T04:13:49.625Z,100917.56
2023-05-10T04:14:21.187Z,100918.72
2023-05-10T04:14:52.762Z,100920.31
2023-05-10T04:15:24.191Z,100918.72
2023-05-10T04:15:55.717Z,100923.03
2023-05-10T04:16:27.088Z,100923.03
2023-05-10T04:16:58.555Z,100917.56
2023-05-10T04:17:30.293Z,100920.31
2023-05-10T04:18:01.923Z,100923.03
2023-05-10T04:18:33.714Z,100928.50
2023-05-10T04:19:05.424Z,100925.00
2023-05-10T04:19:36.920Z,100925.78
2023-05-10T04:20:09.280Z,100925.78
2023-05-10T04:20:40.665Z,100918.34
2023-05-10T04:21:14.260Z,100919.13
2023-05-10T04:21:46.263Z,100919.91
2023-05-10T04:22:18.569Z,100919.50
2023-05-10T04:22:49.989Z,100923.03
2023-05-10T04:23:21.381Z,100916.00
2023-05-10T04:23:52.688Z,100917.56
2023-05-10T04:24:25.431Z,100926.56
2023-05-10T04:24:56.838Z,100916.41
2023-05-10T04:25:28.179Z,100919.13
2023-05-10T04:26:03.256Z,100921.09
2023-05-10T04:26:34.686Z,100921.09
2023-05-10T04:27:06.067Z,100921.88
2023-05-10T04:27:37.857Z,100915.63
2023-05-10T04:28:09.552Z,100917.56
2023-05-10T04:28:40.997Z,100915.63
2023-05-10T04:29:12.575Z,100921.09
2023-05-10T04:29:43.991Z,100922.25
2023-05-10T04:30:15.869Z,100923.03
2023-05-10T04:30:47.393Z,100915.63
2023-05-10T04:31:18.910Z,100917.56
2023-05-10T04:31:50.354Z,100919.50
2023-05-10T04:32:21.849Z,100926.94
2023-05-10T04:32:53.315Z,100923.03
2023-05-10T04:33:24.684Z,100914.84
2023-05-10T04:33:56.089Z,100920.31
2023-05-10T04:34:27.526Z,100919.13
2023-05-10T04:34:59.144Z,100920.69
2023-05-10T04:35:30.491Z,100923.44
2023-05-10T04:36:02.566Z,100923.03
2023-05-10T04:36:36.302Z,100916.00
2023-05-10T04:37:08.568Z,100920.69
2023-05-10T04:37:39.964Z,100926.16
2023-05-10T04:38:11.435Z,100922.66
2023-05-10T04:38:43.662Z,100923.44
2023-05-10T04:39:15.066Z,100924.22
2023-05-10T04:39:46.575Z,100923.81
2023-05-10T04:40:18.285Z,100921.47
2023-05-10T04:40:49.883Z,100921.47
2023-05-10T04:41:21.648Z,100920.69
2023-05-10T04:41:53.033Z,100920.69
2023-05-10T04:42:24.393Z,100917.97
2023-05-10T04:42:55.832Z,100917.19
2023-05-10T04:43:27.212Z,100916.41
2023-05-10T04:43:58.616Z,100917.19
2023-05-10T04:44:30.641Z,100921.09
2023-05-10T04:45:02.093Z,100917.56
2023-05-10T04:45:33.426Z,100922.25
2023-05-10T04:46:05.882Z,100928.50
2023-05-10T04:46:37.349Z,100923.03
2023-05-10T04:47:11.152Z,100927.34
2023-05-10T04:47:43.935Z,100922.66
2023-05-10T04:48:15.413Z,100928.91
2023-05-10T04:48:46.930Z,100926.94
2023-05-10T04:49:18.805Z,100932.41
2023-05-10T04:49:50.209Z,100926.16
2023-05-10T04:50:21.645Z,100923.44
2023-05-10T04:50:53.169Z,100930.47
2023-05-10T04:51:24.597Z,100931.25
2023-05-10T04:51:56.410Z,100934.78
2023-05-10T04:52:27.790Z,100938.69
2023-05-10T04:52:59.144Z,100934.78
2023-05-10T04:53:31.006Z,100939.47
2023-05-10T04:54:06.621Z,100935.94
2023-05-10T04:54:38.415Z,100933.22
2023-05-10T04:55:10.805Z,100937.09
2023-05-10T04:55:42.157Z,100941.78
2023-05-10T04:56:13.552Z,100933.59
2023-05-10T04:56:45.001Z,100933.97
2023-05-10T04:57:16.445Z,100936.72
2023-05-10T04:57:47.837Z,100936.31
2023-05-10T04:58:19.237Z,100941.00
2023-05-10T04:58:50.855Z,100935.53
2023-05-10T04:59:22.308Z,100932.81
2023-05-10T04:59:53.731Z,100941.41
2023-05-10T05:00:25.610Z,100944.94
2023-05-10T05:00:57.039Z,100937.50
2023-05-10T05:01:28.414Z,100940.25
2023-05-10T05:01:59.920Z,100946.50
2023-05-10T05:02:31.903Z,100938.28
2023-05-10T05:03:03.472Z,100945.72
2023-05-10T05:03:35.135Z,100942.97
2023-05-10T05:04:06.567Z,100941.81
2023-05-10T05:04:37.982Z,100936.34
2023-05-10T05:05:09.496Z,100941.81
2023-05-10T05:05:40.957Z,100945.72
2023-05-10T05:06:12.334Z,100946.50
2023-05-10T05:06:44.052Z,100947.28
2023-05-10T05:07:15.700Z,100945.31
2023-05-10T05:07:47.086Z,100943.38
2023-05-10T05:08:18.530Z,100945.72
2023-05-10T05:08:50.629Z,100948.47
2023-05-10T05:09:22.094Z,100954.72
2023-05-10T05:09:54.157Z,100949.25
2023-05-10T05:10:25.582Z,100950.78
2023-05-10T05:10:56.911Z,100948.03
2023-05-10T05:11:28.334Z,100948.03
2023-05-10T05:11:59.800Z,100952.34
2023-05-10T05:12:31.302Z,100949.63
2023-05-10T05:13:03.061Z,100956.66
2023-05-10T05:13:34.529Z,100955.09
2023-05-10T05:14:05.867Z,100952.75
2023-05-10T05:14:37.228Z,100948.84
2023-05-10T05:15:10.282Z,100954.31
2023-05-10T05:15:41.742Z,100948.06
2023-05-10T05:16:13.175Z,100957.06
2023-05-10T05:16:44.583Z,100955.47
2023-05-10T05:17:16.248Z,100952.75
2023-05-10T05:17:47.941Z,100950.00
2023-05-10T05:18:19.377Z,100956.66
2023-05-10T05:18:50.828Z,100950.41
2023-05-10T05:19:22.419Z,100956.66
2023-05-10T05:19:54.244Z,100957.81
2023-05-10T05:20:25.717Z,100952.72
2023-05-10T05:20:57.054Z,100955.88
2023-05-10T05:21:28.493Z,100951.56
2023-05-10T05:21:59.837Z,100955.09
2023-05-10T05:22:31.333Z,100957.03
2023-05-10T05:23:02.923Z,100950.78
2023-05-10T05:23:34.306Z,100954.31
2023-05-10T05:24:06.332Z,100956.25
2023-05-10T05:24:41.007Z,100959.78
2023-05-10T05:25:12.740Z,100959.00
2023-05-10T05:25:44.203Z,100956.25
2023-05-10T05:26:16.134Z,100962.50
2023-05-10T05:26:48.048Z,100958.19
2023-05-10T05:27:19.424Z,100961.72
2023-05-10T05:27:50.955Z,100959.00
2023-05-10T05:28:24.812Z,100963.28
2023-05-10T05:28:56.272Z,100962.91
2023-05-10T05:29:27.592Z,100959.00
2023-05-10T05:29:59.657Z,100966.03
2023-05-10T05:30:31.007Z,100966.03
2023-05-10T05:31:02.370Z,100967.59
2023-05-10T05:31:33.721Z,100969.16
2023-05-10T05:32:05.521Z,100969.16
2023-05-10T05:32:36.990Z,100965.63
2023-05-10T05:33:08.523Z,100974.63
2023-05-10T05:33:39.968Z,100970.34
2023-05-10T05:34:11.285Z,100969.56
2023-05-10T05:34:42.683Z,100970.34
2023-05-10T05:35:14.268Z,100968.38
2023-05-10T05:35:51.477Z,100969.16
2023-05-10T05:36:22.886Z,100976.22
2023-05-10T05:36:54.801Z,100965.66
2023-05-10T05:37:26.187Z,100969.97
2023-05-10T05:37:57.567Z,100969.97
2023-05-10T05:38:28.993Z,100967.59
2023-05-10T05:39:00.322Z,100965.25
2023-05-10T05:39:31.676Z,100969.94
2023-05-10T05:40:03.562Z,100973.06
2023-05-10T05:40:35.023Z,100974.22
2023-05-10T05:41:06.375Z,100966.03
2023-05-10T05:41:37.806Z,100973.44
2023-05-10T05:42:10.268Z,100973.88
2023-05-10T05:42:42.209Z,100975.41
2023-05-10T05:43:14.412Z,100975.41
2023-05-10T05:43:45.749Z,100970.72
2023-05-10T05:44:17.150Z,100975.41
2023-05-10T05:44:48.524Z,100970.72
2023-05-10T05:45:20.081Z,100974.22
2023-05-10T05:45:54.140Z,100972.66
2023-05-10T05:46:25.752Z,100970.72
2023-05-10T05:46:57.228Z,100973.06
2023-05-10T05:47:28.633Z,100973.06
2023-05-10T05:48:00.479Z,100973.84
2023-05-10T05:48:32.148Z,100969.94
2023-05-10T05:49:03.734Z,100982.44
2023-05-10T05:49:35.086Z,100971.50
2023-05-10T05:50:07.155Z,100977.75
2023-05-10T05:50:38.502Z,100976.19
2023-05-10T05:51:09.871Z,100976.19
2023-05-10T05:51:41.243Z,100980.88
2023-05-10T05:52:12.687Z,100977.75
2023-05-10T05:52:44.089Z,100981.66
2023-05-10T05:53:15.640Z,100976.19
2023-05-10T05:53:47.048Z,100976.19
2023-05-10T05:54:18.460Z,100975.41
2023-05-10T05:54:49.824Z,100983.59
2023-05-10T05:55:21.144Z,100980.09
2023-05-10T05:55:56.788Z,100979.31
2023-05-10T05:56:28.119Z,100977.75
2023-05-10T05:57:01.308Z,100980.47
2023-05-10T05:57:33.082Z,100986.34
2023-05-10T05:58:04.624Z,100982.44
2023-05-10T05:58:36.456Z,100985.94
2023-05-10T05:59:07.891Z,100988.69
2023-05-10T05:59:44.581Z,100983.22
2023-05-10T06:00:16.456Z,100989.47
2023-05-10T06:00:47.849Z,100979.69
2023-05-10T06:01:19.351Z,100987.13
2023-05-10T06:01:50.774Z,100982.44
2023-05-10T06:02:25.182Z,100992.59
2023-05-10T06:02:56.913Z,100987.91
2023-05-10T06:03:28.413Z,100990.63
2023-05-10T06:03:59.866Z,100989.06
2023-05-10T06:04:31.426Z,100991.81
2023-05-10T06:05:03.358Z,100991.03
2023-05-10T06:05:34.693Z,100991.81
2023-05-10T06:06:06.334Z,100997.28
2023-05-10T06:06:37.761Z,100999.59
2023-05-10T06:07:09.121Z,100994.13
2023-05-10T06:07:43.114Z,100997.25
2023-05-10T06:08:14.627Z,100996.47
2023-05-10T06:08:45.953Z,100995.31
2023-05-10T06:09:17.383Z,100995.31
2023-05-10T06:09:48.762Z,101002.72
2023-05-10T06:10:20.391Z,100996.47
2023-05-10T06:10:51.777Z,101000.38
2023-05-10T06:11:23.827Z,101001.94
2023-05-10T06:11:55.209Z,101003.09
2023-05-10T06:12:26.543Z,101000.38
2023-05-10T06:12:57.938Z,100998.03
2023-05-10T06:13:33.905Z,101000.75
2023-05-10T06:14:05.834Z,101005.44
2023-05-10T06:14:37.216Z,101008.19
2023-05-10T06:15:09.361Z,101003.50
2023-05-10T06:15:41.128Z,101002.31
2023-05-10T06:16:13.142Z,101003.09
2023-05-10T06:16:44.521Z,101001.94
2023-05-10T06:17:15.921Z,101001.16
2023-05-10T06:17:48.145Z,101007.03
2023-05-10T06:18:19.692Z,101006.25
2023-05-10T06:18:51.072Z,101004.28
2023-05-10T06:19:22.593Z,101008.97
2023-05-10T06:19:54.162Z,101009.38
2023-05-10T06:20:26.011Z,101003.50
2023-05-10T06:20:57.374Z,101013.66
2023-05-10T06:21:28.769Z,101010.50
2023-05-10T06:22:00.217Z,101009.34